Time;durP1;ratioP1;P1;durP2;ratioP2;P2;SDS_P1;SDS_P2;PMS_P1;PMS_P2;Temp;Humidity;BMP_temperature;BMP_pressure;BME280_temperature;BME280_humidity;BME280_pressure;Samples;Min_cycle;Max_cycle;Signal;HPM_P1;HPM_P2
2022/03/12 00:00:00;;;;;;;16.43;8.10;;;;;;;-0.56;66.75;94684.38;5012338;28;20203;-63
2022/03/12 00:02:46;;;;;;;15.53;7.77;;;;;;;-0.47;67.66;94693.50;5016771;28;20191;-63
2022/03/12 00:05:38;;;;;;;12.13;7.80;;;;;;;-0.54;65.89;94693.53;5030487;28;20215;-64
2022/03/12 00:08:40;;;;;;;12.10;8.33;;;;;;;-0.98;66.12;94697.94;5031703;28;20670;-63
2022/03/12 00:11:28;;;;;;;10.70;7.97;;;;;;;-0.79;67.66;94708.97;5029415;28;20704;-65
2022/03/12 00:14:15;;;;;;;10.40;7.27;;;;;;;-0.48;65.70;94710.00;5015386;28;20206;-63
2022/03/12 00:17:01;;;;;;;12.37;7.50;;;;;;;-0.35;65.62;94697.66;5023893;28;20211;-62
2022/03/12 00:19:47;;;;;;;10.30;6.83;;;;;;;-0.52;62.26;94683.19;5031404;28;20215;-59
2022/03/12 00:22:34;;;;;;;10.23;7.03;;;;;;;-0.52;61.76;94695.81;5029755;28;20282;-59
2022/03/12 00:25:26;;;;;;;13.97;7.20;;;;;;;-0.69;64.14;94697.44;5023369;28;20207;-63
2022/03/12 00:28:15;;;;;;;14.23;6.93;;;;;;;-0.72;65.36;94710.84;5020841;28;20198;-59
2022/03/12 00:31:04;;;;;;;10.50;7.20;;;;;;;-0.67;66.78;94713.91;5017547;28;20283;-59
2022/03/12 00:33:50;;;;;;;17.20;8.60;;;;;;;-0.93;66.98;94705.59;5030925;28;20259;-65
2022/03/12 00:36:36;;;;;;;18.50;10.10;;;;;;;-0.66;68.47;94712.75;5027254;28;20250;-63
2022/03/12 00:39:22;;;;;;;10.90;7.90;;;;;;;-0.77;66.48;94708.59;5014189;28;20197;-63
2022/03/12 00:42:09;;;;;;;12.83;8.23;;;;;;;-0.82;67.96;94707.09;5031181;28;20568;-62
2022/03/12 00:44:55;;;;;;;11.53;6.73;;;;;;;-0.97;67.54;94710.97;5024963;28;20235;-63
2022/03/12 00:47:41;;;;;;;12.50;8.73;;;;;;;-0.90;68.35;94716.28;5031370;28;20546;-63
2022/03/12 00:50:27;;;;;;;12.60;7.67;;;;;;;-0.83;69.83;94712.84;5027211;28;20997;-63
2022/03/12 00:53:13;;;;;;;10.70;7.53;;;;;;;-0.57;68.54;94712.31;5023806;28;20572;-63
2022/03/12 00:55:58;;;;;;;9.67;7.03;;;;;;;-0.64;65.23;94715.81;5028126;28;20238;-62
2022/03/12 00:58:46;;;;;;;10.80;6.23;;;;;;;-0.79;63.79;94711.66;5031150;28;20214;-63
2022/03/12 01:01:32;;;;;;;13.13;6.70;;;;;;;-0.87;63.88;94707.50;5028420;28;20274;-63
2022/03/12 01:04:19;;;;;;;9.33;6.43;;;;;;;-0.83;63.07;94723.56;5022998;28;20199;-65
2022/03/12 01:07:05;;;;;;;14.13;7.50;;;;;;;-0.96;64.82;94725.13;5030807;28;20830;-65
2022/03/12 01:09:51;;;;;;;10.17;7.03;;;;;;;-1.19;67.59;94722.91;5015131;28;20217;-64
2022/03/12 01:12:37;;;;;;;10.23;7.30;;;;;;;-1.20;69.03;94731.31;5025130;28;20293;-63
2022/03/12 01:15:23;;;;;;;10.60;7.90;;;;;;;-1.21;70.54;94730.53;5030623;28;20214;-64
2022/03/12 01:18:13;;;;;;;10.63;6.83;;;;;;;-1.17;69.86;94725.19;5028091;28;20286;-64
2022/03/12 01:21:08;;;;;;;10.97;7.10;;;;;;;-0.78;68.99;94721.22;5021174;28;20206;-63
2022/03/12 01:23:54;;;;;;;14.33;7.27;;;;;;;-0.93;64.97;94721.69;5008935;28;20187;-62
2022/03/12 01:26:40;;;;;;;11.93;7.30;;;;;;;-0.97;64.46;94724.38;5020383;28;20310;-64
2022/03/12 01:29:26;;;;;;;9.30;6.77;;;;;;;-0.88;62.59;94732.00;5021426;28;20706;-65
2022/03/12 01:32:12;;;;;;;9.70;6.20;;;;;;;-0.99;62.21;94720.53;5031142;28;20648;-59
2022/03/12 01:34:58;;;;;;;13.40;7.03;;;;;;;-1.03;63.28;94728.59;5027443;28;20195;-59
2022/03/12 01:37:44;;;;;;;11.13;7.33;;;;;;;-1.14;63.80;94711.78;5029126;28;20329;-59
2022/03/12 01:40:30;;;;;;;10.70;6.00;;;;;;;-1.02;62.80;94707.91;5027408;28;20690;-63
2022/03/12 01:43:16;;;;;;;13.90;7.97;;;;;;;-1.00;65.14;94711.72;5025791;28;20234;-62
2022/03/12 01:46:02;;;;;;;13.73;8.53;;;;;;;-1.22;66.31;94704.91;5022473;28;20218;-63
2022/03/12 01:48:51;;;;;;;15.63;10.33;;;;;;;-1.31;68.47;94709.91;5027413;28;20191;-63
2022/03/12 01:51:38;;;;;;;19.13;11.60;;;;;;;-1.42;70.56;94696.53;5025836;28;20199;-59
2022/03/12 01:54:26;;;;;;;19.50;10.70;;;;;;;-1.18;71.05;94713.69;5017989;28;20253;-59
2022/03/12 01:57:12;;;;;;;14.63;9.33;;;;;;;-1.35;71.03;94720.63;5025682;28;20692;-59
2022/03/12 01:59:58;;;;;;;14.93;8.03;;;;;;;-1.21;71.10;94722.50;5028835;28;20704;-64
2022/03/12 02:02:48;;;;;;;11.63;7.93;;;;;;;-1.09;70.48;94721.34;5019223;28;20203;-63
2022/03/12 02:05:34;;;;;;;12.97;8.20;;;;;;;-1.02;70.42;94724.00;5012030;28;20261;-59
2022/03/12 02:08:20;;;;;;;9.90;6.93;;;;;;;-1.18;71.10;94718.28;5028402;28;20202;-59
2022/03/12 02:11:06;;;;;;;18.27;10.07;;;;;;;-1.33;71.63;94718.34;5014467;28;20209;-59
2022/03/12 02:13:58;;;;;;;14.63;8.50;;;;;;;-1.51;72.49;94720.25;5028469;28;20195;-64
2022/03/12 02:16:49;;;;;;;10.67;7.90;;;;;;;-1.32;72.58;94719.84;5028586;28;20223;-64
2022/03/12 02:19:35;;;;;;;11.93;7.87;;;;;;;-1.24;70.34;94728.66;5014091;28;20187;-63
2022/03/12 02:22:21;;;;;;;11.43;7.63;;;;;;;-1.30;70.42;94736.31;5024639;28;20207;-62
2022/03/12 02:25:08;;;;;;;12.50;8.00;;;;;;;-1.50;70.56;94727.16;5026176;28;20219;-62
2022/03/12 02:27:55;;;;;;;12.37;7.60;;;;;;;-1.45;71.43;94732.13;5021951;28;20206;-63
2022/03/12 02:30:47;;;;;;;10.30;6.83;;;;;;;-1.64;70.39;94737.09;5026378;28;20599;-59
2022/03/12 02:33:33;;;;;;;13.07;7.57;;;;;;;-1.69;71.35;94738.25;5018066;28;20562;-63
2022/03/12 02:36:26;;;;;;;10.07;7.43;;;;;;;-1.84;70.28;94734.03;5016790;28;20260;-59
2022/03/12 02:39:13;;;;;;;9.93;7.33;;;;;;;-1.82;70.05;94739.00;5021949;28;20274;-60
2022/03/12 02:42:02;;;;;;;13.20;6.97;;;;;;;-1.86;71.33;94728.31;5013057;28;20202;-64
2022/03/12 02:44:50;;;;;;;13.40;7.33;;;;;;;-1.86;71.97;94736.34;5026907;28;20660;-63
2022/03/12 02:47:41;;;;;;;10.57;6.97;;;;;;;-1.87;71.23;94740.16;5028126;28;20191;-59
2022/03/12 02:50:27;;;;;;;13.17;6.93;;;;;;;-1.65;71.58;94741.69;5018807;28;20257;-63
2022/03/12 02:53:13;;;;;;;10.40;7.00;;;;;;;-1.55;71.89;94745.50;5031682;28;20218;-65
2022/03/12 02:55:59;;;;;;;11.60;7.27;;;;;;;-1.27;71.14;94740.09;5032130;28;20226;-63
2022/03/12 02:58:45;;;;;;;9.53;6.97;;;;;;;-1.30;71.32;94741.66;5030130;28;20206;-63
2022/03/12 03:01:33;;;;;;;8.83;6.70;;;;;;;-1.67;70.95;94744.00;5033766;28;20194;-59
2022/03/12 03:04:22;;;;;;;10.87;7.00;;;;;;;-1.76;70.31;94750.84;5032568;28;20285;-59
2022/03/12 03:07:09;;;;;;;10.80;7.20;;;;;;;-1.54;72.87;94741.69;5018903;28;20222;-63
2022/03/12 03:09:55;;;;;;;10.03;6.77;;;;;;;-1.60;72.67;94745.91;5031126;28;20226;-59
2022/03/12 03:12:42;;;;;;;8.77;6.50;;;;;;;-1.71;71.91;94758.50;5032120;28;20248;-64
2022/03/12 03:15:28;;;;;;;11.67;6.93;;;;;;;-2.01;72.65;94748.19;5018413;28;20357;-63
2022/03/12 03:18:22;;;;;;;15.47;7.10;;;;;;;-1.87;74.13;94760.81;5025643;28;20219;-64
2022/03/12 03:21:12;;;;;;;10.43;7.43;;;;;;;-1.61;73.49;94752.38;5030249;28;20586;-64
2022/03/12 03:24:00;;;;;;;9.57;7.07;;;;;;;-1.75;73.21;94747.06;5027058;28;20196;-65
2022/03/12 03:26:51;;;;;;;8.23;6.60;;;;;;;-1.79;72.25;94740.91;5031204;28;20222;-63
2022/03/12 03:29:37;;;;;;;13.77;7.90;;;;;;;-1.57;73.57;94745.91;5031132;28;20730;-65
2022/03/12 03:32:24;;;;;;;11.73;7.67;;;;;;;-1.58;74.30;94741.69;5032660;28;20195;-59
2022/03/12 03:35:10;;;;;;;10.43;6.87;;;;;;;-1.69;73.96;94750.84;5026869;28;20225;-63
2022/03/12 03:37:57;;;;;;;10.37;7.30;;;;;;;-1.80;74.41;94758.88;5027854;28;20194;-64
2022/03/12 03:40:44;;;;;;;11.50;7.80;;;;;;;-1.72;74.58;94752.41;5029832;28;20210;-63
2022/03/12 03:43:30;;;;;;;11.27;7.13;;;;;;;-1.93;72.82;94755.06;5027438;28;20202;-59
2022/03/12 03:46:20;;;;;;;12.00;7.67;;;;;;;-1.63;75.08;94750.09;5031891;28;20211;-65
2022/03/12 03:49:07;;;;;;;10.30;7.50;;;;;;;-1.80;73.98;94750.84;5031665;28;20222;-62
2022/03/12 03:51:53;;;;;;;12.13;7.47;;;;;;;-1.76;75.84;94750.84;5015849;28;20261;-63
2022/03/12 03:54:41;;;;;;;10.43;7.63;;;;;;;-1.47;75.30;94747.03;5029320;28;20187;-63
2022/03/12 03:57:27;;;;;;;11.70;7.30;;;;;;;-1.74;75.79;94748.56;5030548;28;20337;-64
2022/03/12 04:00:14;;;;;;;13.53;7.03;;;;;;;-1.98;75.23;94746.63;5031662;28;20183;-59
2022/03/12 04:03:04;;;;;;;12.07;7.33;;;;;;;-2.26;77.01;94750.06;5031950;28;20191;-63
2022/03/12 04:05:50;;;;;;;11.80;7.43;;;;;;;-1.91;76.70;94741.28;5027315;28;20602;-63
2022/03/12 04:08:36;;;;;;;19.87;7.97;;;;;;;-2.01;77.13;94737.47;5017369;28;20278;-63
2022/03/12 04:11:24;;;;;;;13.97;8.03;;;;;;;-1.83;76.01;94737.50;5015038;28;20203;-64
2022/03/12 04:14:11;;;;;;;14.33;7.97;;;;;;;-1.91;75.71;94744.75;5016753;28;20199;-63
2022/03/12 04:16:58;;;;;;;11.33;7.70;;;;;;;-1.82;76.51;94742.47;5024485;28;20245;-64
2022/03/12 04:19:44;;;;;;;17.27;7.80;;;;;;;-2.00;75.57;94747.00;5031413;28;20302;-64
2022/03/12 04:22:31;;;;;;;12.70;7.77;;;;;;;-1.85;77.57;94739.78;5011992;28;20188;-63
2022/03/12 04:25:18;;;;;;;11.27;7.70;;;;;;;-1.86;76.62;94744.38;5029518;28;20290;-59
2022/03/12 04:28:07;;;;;;;12.23;7.33;;;;;;;-2.05;77.85;94746.66;5025696;28;20183;-59
2022/03/12 04:30:55;;;;;;;10.20;7.70;;;;;;;-2.39;78.38;94753.47;5031986;28;20222;-63
2022/03/12 04:33:41;;;;;;;12.77;8.00;;;;;;;-2.37;79.27;94743.13;5015286;28;20282;-59
2022/03/12 04:36:28;;;;;;;15.13;8.13;;;;;;;-2.38;77.82;94747.72;5030034;28;20665;-63
2022/03/12 04:39:14;;;;;;;11.70;8.30;;;;;;;-2.23;78.07;94757.31;5030997;28;20565;-63
2022/03/12 04:42:00;;;;;;;13.13;8.43;;;;;;;-2.44;78.67;94746.56;4997561;28;20275;-62
2022/03/12 04:44:46;;;;;;;10.50;7.47;;;;;;;-2.18;79.31;94746.25;5030227;28;20191;-63
2022/03/12 04:47:35;;;;;;;9.13;7.37;;;;;;;-2.21;80.11;94749.69;4999955;28;20365;-64
2022/03/12 04:50:22;;;;;;;17.33;7.97;;;;;;;-2.33;79.92;94755.38;5031305;28;20931;-63
2022/03/12 04:53:09;;;;;;;11.77;7.80;;;;;;;-2.63;80.93;94762.94;5022965;28;20211;-59
2022/03/12 04:55:55;;;;;;;10.87;7.70;;;;;;;-2.42;81.73;94776.34;5029145;28;20207;-63
2022/03/12 04:58:41;;;;;;;14.10;7.73;;;;;;;-2.46;81.53;94771.00;5030532;28;20195;-62
2022/03/12 05:01:28;;;;;;;14.43;7.80;;;;;;;-2.47;80.11;94772.16;5017576;28;20183;-60
2022/03/12 05:04:14;;;;;;;13.73;7.80;;;;;;;-2.13;81.16;94772.59;5015086;28;20195;-62
2022/03/12 05:07:05;;;;;;;12.80;8.70;;;;;;;-2.10;80.25;94771.06;5028052;28;20215;-62
2022/03/12 05:09:51;;;;;;;12.77;8.50;;;;;;;-2.10;79.64;94779.88;5029890;28;20211;-62
2022/03/12 05:12:40;;;;;;;13.33;7.93;;;;;;;-1.95;80.98;94769.97;5029439;28;20559;-62
2022/03/12 05:15:34;;;;;;;10.87;7.97;;;;;;;-2.26;80.52;94786.72;5014940;28;20211;-63
2022/03/12 05:18:21;;;;;;;11.60;8.07;;;;;;;-2.27;81.43;94790.53;5014141;28;20206;-64
2022/03/12 05:21:07;;;;;;;13.83;8.80;;;;;;;-2.30;83.00;94792.06;5028178;28;20233;-59
2022/03/12 05:23:54;;;;;;;12.07;7.53;;;;;;;-2.37;82.23;94796.59;5021063;28;20195;-64
2022/03/12 05:26:40;;;;;;;15.50;8.53;;;;;;;-2.60;81.93;94797.66;5026529;28;20222;-64
2022/03/12 05:29:31;;;;;;;11.43;8.17;;;;;;;-2.48;83.74;94791.22;5007881;28;20324;-64
2022/03/12 05:32:17;;;;;;;11.27;7.63;;;;;;;-2.57;83.31;94801.50;5022670;28;20799;-63
2022/03/12 05:35:03;;;;;;;13.83;8.50;;;;;;;-2.66;82.33;94793.81;5012531;28;20203;-64
2022/03/12 05:37:50;;;;;;;13.73;8.60;;;;;;;-2.42;83.17;94804.97;5030254;28;20194;-62
2022/03/12 05:40:39;;;;;;;11.50;8.50;;;;;;;-2.35;82.84;94810.38;5027395;28;20186;-64
2022/03/12 05:43:26;;;;;;;12.07;8.50;;;;;;;-2.72;82.52;94807.94;5029735;28;20191;-65
2022/03/12 05:46:15;;;;;;;10.77;7.90;;;;;;;-2.76;85.41;94807.91;5025039;28;20206;-63
2022/03/12 05:49:01;;;;;;;13.90;9.00;;;;;;;-2.61;85.16;94812.19;5009529;28;20203;-63
2022/03/12 05:51:46;;;;;;;13.10;9.13;;;;;;;-2.67;83.46;94810.25;5023166;28;20278;-63
2022/03/12 05:54:34;;;;;;;12.70;8.23;;;;;;;-2.74;84.68;94810.97;5022637;28;20207;-60
2022/03/12 05:57:20;;;;;;;10.23;7.87;;;;;;;-2.60;85.39;94815.63;5017057;28;20321;-59
2022/03/12 06:00:11;;;;;;;12.27;8.47;;;;;;;-2.83;85.62;94817.78;5009225;28;20612;-64
2022/03/12 06:03:02;;;;;;;11.00;7.77;;;;;;;-2.89;85.96;94824.63;5026928;28;20203;-64
2022/03/12 06:05:56;;;;;;;14.57;8.23;;;;;;;-2.39;85.53;94818.38;5013291;28;20225;-63
2022/03/12 06:08:42;;;;;;;13.73;8.63;;;;;;;-2.68;84.63;94824.75;5028000;28;20191;-65
2022/03/12 06:11:29;;;;;;;16.30;9.50;;;;;;;-2.20;86.22;94822.63;5028110;28;20195;-65
2022/03/12 06:14:16;;;;;;;10.53;8.13;;;;;;;-2.18;84.88;94823.81;5004043;28;20213;-65
2022/03/12 06:17:02;;;;;;;16.87;9.00;;;;;;;-2.28;82.74;94815.75;5023909;28;20215;-64
2022/03/12 06:19:48;;;;;;;11.33;8.17;;;;;;;-2.13;84.33;94825.34;5025212;28;20274;-64
2022/03/12 06:22:34;;;;;;;12.37;8.50;;;;;;;-2.25;83.27;94828.34;5012927;28;20203;-64
2022/03/12 06:25:23;;;;;;;15.03;8.50;;;;;;;-2.32;83.10;94823.75;5023453;28;20223;-65
2022/03/12 06:28:09;;;;;;;13.27;8.57;;;;;;;-2.29;83.80;94831.00;5024364;28;20206;-64
2022/03/12 06:30:55;;;;;;;15.03;9.03;;;;;;;-2.19;83.51;94838.31;5023919;28;20221;-60
2022/03/12 06:33:42;;;;;;;16.67;10.17;;;;;;;-2.35;84.49;94843.22;5023649;28;20238;-64
2022/03/12 06:36:29;;;;;;;14.37;9.23;;;;;;;-2.38;85.99;94837.88;5022777;28;20285;-64
2022/03/12 06:39:16;;;;;;;10.73;8.43;;;;;;;-2.09;85.87;94842.16;5014679;28;20202;-64
2022/03/12 06:42:05;;;;;;;14.70;8.63;;;;;;;-1.81;85.15;94840.31;5023712;28;20222;-64
2022/03/12 06:44:54;;;;;;;14.53;8.47;;;;;;;-1.88;83.68;94839.53;4999540;28;20260;-65
2022/03/12 06:47:40;;;;;;;11.00;7.70;;;;;;;-1.84;84.45;94851.03;5024427;28;20631;-60
2022/03/12 06:50:27;;;;;;;11.83;7.97;;;;;;;-1.58;84.76;94856.06;5025638;28;20280;-59
2022/03/12 06:53:14;;;;;;;13.07;8.87;;;;;;;-1.39;84.75;94851.09;5028365;28;20190;-60
2022/03/12 06:56:00;;;;;;;15.07;10.07;;;;;;;-1.27;83.08;94847.25;5024029;28;20246;-60
2022/03/12 06:58:46;;;;;;;13.17;9.40;;;;;;;-1.18;83.47;94855.69;5028056;28;20206;-60
2022/03/12 07:01:32;;;;;;;13.87;8.60;;;;;;;-0.90;82.56;94861.00;5036155;28;20197;-59
2022/03/12 07:04:21;;;;;;;11.43;8.73;;;;;;;-0.62;79.65;94869.03;5029191;28;20197;-60
2022/03/12 07:07:07;;;;;;;16.00;8.63;;;;;;;-0.24;80.12;94862.78;5023324;28;20215;-60
2022/03/12 07:09:53;;;;;;;19.70;9.50;;;;;;;-0.17;80.37;94868.13;5013423;28;20222;-63
2022/03/12 07:12:40;;;;;;;12.93;9.77;;;;;;;0.06;80.72;94869.56;5020913;28;20195;-65
2022/03/12 07:15:26;;;;;;;13.33;9.17;;;;;;;0.11;80.61;94866.47;5017553;28;20233;-65
2022/03/12 07:18:12;;;;;;;18.00;9.90;;;;;;;0.25;81.15;94863.72;5026828;28;20239;-65
2022/03/12 07:20:59;;;;;;;15.10;10.43;;;;;;;0.42;83.06;94862.88;5027028;28;20854;-65
2022/03/12 07:23:45;;;;;;;13.60;9.40;;;;;;;0.61;81.81;94873.13;5026239;28;20199;-65
2022/03/12 07:26:31;;;;;;;18.63;9.77;;;;;;;0.46;83.07;94877.06;5022618;28;20267;-65
2022/03/12 07:29:17;;;;;;;14.10;9.57;;;;;;;0.72;82.53;94877.25;5023021;28;20253;-65
2022/03/12 07:32:03;;;;;;;23.77;10.17;;;;;;;0.94;83.15;94870.56;5014400;28;20198;-65
2022/03/12 07:34:49;;;;;;;15.27;9.33;;;;;;;1.05;81.96;94873.19;5017167;28;20306;-64
2022/03/12 07:37:35;;;;;;;18.17;9.80;;;;;;;1.30;81.90;94897.94;5027323;28;20705;-64
2022/03/12 07:40:21;;;;;;;21.27;9.60;;;;;;;1.44;81.42;94870.13;5029826;28;20194;-64
2022/03/12 07:43:07;;;;;;;17.97;10.50;;;;;;;1.60;82.71;94876.50;5029253;28;20263;-64
2022/03/12 07:45:54;;;;;;;11.23;9.30;;;;;;;1.76;81.69;94874.03;5025864;28;20593;-64
2022/03/12 07:48:41;;;;;;;17.17;9.43;;;;;;;1.96;80.08;94880.34;5031390;28;20202;-65
2022/03/12 07:51:27;;;;;;;14.03;9.67;;;;;;;1.94;80.13;94879.19;5029754;28;20203;-66
2022/03/12 07:54:14;;;;;;;14.97;9.80;;;;;;;2.12;80.55;94885.91;5030760;28;20202;-64
2022/03/12 07:57:01;;;;;;;16.03;9.83;;;;;;;2.51;78.48;94893.53;5024649;28;20227;-64
2022/03/12 07:59:46;;;;;;;15.20;9.50;;;;;;;2.70;77.17;94882.06;5031720;28;20270;-63
2022/03/12 08:02:33;;;;;;;14.43;10.63;;;;;;;2.89;80.24;94877.94;5028674;28;20567;-64
2022/03/12 08:05:23;;;;;;;15.90;9.63;;;;;;;3.12;80.62;94884.13;5022296;28;20368;-65
2022/03/12 08:08:09;;;;;;;12.97;10.20;;;;;;;3.28;80.67;94876.16;5030889;28;20253;-65
2022/03/12 08:11:40;;;;;;;13.37;10.03;;;;;;;3.46;79.72;94875.88;5028225;28;20249;-65
2022/03/12 08:14:06;;;;;;;15.67;9.23;;;;;;;3.49;82.25;94873.13;5023139;28;20282;-65
2022/03/12 08:16:52;;;;;;;18.97;10.63;;;;;;;3.50;82.77;94869.25;5024885;28;20650;-66
2022/03/12 08:19:41;;;;;;;13.67;9.40;;;;;;;3.76;82.58;94864.91;5027197;28;20191;-63
2022/03/12 08:22:27;;;;;;;16.83;10.33;;;;;;;3.66;82.35;94874.72;5027136;28;20278;-64
2022/03/12 08:25:15;;;;;;;17.10;10.70;;;;;;;4.05;80.17;94865.91;5025874;28;20217;-64
2022/03/12 08:28:01;;;;;;;13.00;9.67;;;;;;;4.34;78.29;94866.88;5027196;28;21003;-64
2022/03/12 08:30:47;;;;;;;18.70;10.60;;;;;;;4.18;78.35;94864.09;5015277;28;20738;-64
2022/03/12 08:33:34;;;;;;;14.17;10.90;;;;;;;4.46;77.81;94860.78;5022606;28;20228;-64
2022/03/12 08:36:20;;;;;;;14.10;10.07;;;;;;;4.82;75.01;94864.25;5027375;28;20321;-64
2022/03/12 08:39:10;;;;;;;16.63;10.43;;;;;;;5.07;71.61;94862.94;5023550;28;20198;-64
2022/03/12 08:41:56;;;;;;;16.60;9.43;;;;;;;5.30;69.65;94860.03;5009176;28;20195;-64
2022/03/12 08:44:41;;;;;;;18.13;10.57;;;;;;;5.43;68.54;94860.91;5028684;28;20199;-60
2022/03/12 08:47:27;;;;;;;14.93;10.27;;;;;;;5.62;66.08;94849.19;5027962;28;20653;-61
2022/03/12 08:50:14;;;;;;;24.67;12.77;;;;;;;5.66;65.82;94860.69;5023448;28;20219;-60
2022/03/12 08:53:00;;;;;;;20.07;10.57;;;;;;;5.83;67.74;94859.50;5014843;28;20206;-61
2022/03/12 08:55:47;;;;;;;19.70;10.60;;;;;;;5.84;66.00;94852.88;5009299;28;20215;-66
2022/03/12 08:58:33;;;;;;;16.37;10.60;;;;;;;6.01;66.27;94847.00;5013843;28;20296;-65
2022/03/12 09:01:21;;;;;;;15.57;10.73;;;;;;;6.08;65.39;94857.66;5023687;28;20191;-66
2022/03/12 09:04:07;;;;;;;13.80;9.37;;;;;;;6.82;70.92;94852.03;5021647;28;20187;-66
2022/03/12 09:06:55;;;;;;;16.43;10.30;;;;;;;6.99;63.60;94856.91;5030909;28;20207;-66
2022/03/12 09:09:41;;;;;;;17.00;11.03;;;;;;;7.20;63.53;94847.34;5009032;28;20601;-66
2022/03/12 09:12:28;;;;;;;17.67;12.00;;;;;;;7.17;59.71;94845.50;5028825;28;20582;-65
2022/03/12 09:15:14;;;;;;;16.00;11.23;;;;;;;7.23;57.93;94844.53;5026286;28;20226;-66
2022/03/12 09:18:00;;;;;;;15.60;11.50;;;;;;;7.55;59.06;94850.88;5023349;28;20261;-66
2022/03/12 09:20:46;;;;;;;15.93;11.60;;;;;;;7.71;57.16;94837.13;5023119;28;20261;-64
2022/03/12 09:23:33;;;;;;;15.87;11.40;;;;;;;8.04;55.82;94843.75;5023094;28;20273;-64
2022/03/12 09:26:21;;;;;;;24.43;13.00;;;;;;;8.18;54.24;94832.34;5025534;28;20227;-64
2022/03/12 09:29:07;;;;;;;21.17;12.80;;;;;;;8.45;52.73;94844.22;5028872;28;20245;-64
2022/03/12 09:31:52;;;;;;;18.13;13.17;;;;;;;7.91;51.28;94843.81;5020684;28;20195;-64
2022/03/12 09:34:39;;;;;;;19.47;13.30;;;;;;;7.81;50.30;94841.44;5024972;28;20199;-62
2022/03/12 09:37:25;;;;;;;19.20;14.00;;;;;;;8.03;49.03;94847.66;5027789;28;20202;-63
2022/03/12 09:40:12;;;;;;;22.97;14.90;;;;;;;8.23;47.04;94845.41;5026062;28;20190;-63
2022/03/12 09:42:58;;;;;;;24.73;14.27;;;;;;;8.56;45.98;94838.38;5022444;28;20264;-63
2022/03/12 09:45:44;;;;;;;25.33;15.27;;;;;;;8.51;43.13;94839.72;5019764;28;20220;-63
2022/03/12 09:48:30;;;;;;;23.43;15.50;;;;;;;8.80;43.06;94833.97;5028607;28;20278;-63
2022/03/12 09:51:16;;;;;;;23.93;15.90;;;;;;;8.94;41.82;94838.13;5027462;28;20233;-63
2022/03/12 09:54:03;;;;;;;23.50;15.47;;;;;;;9.06;40.43;94838.00;5015643;28;20671;-63
2022/03/12 09:56:48;;;;;;;22.43;14.17;;;;;;;9.35;40.38;94832.94;5027610;28;20544;-63
2022/03/12 09:59:34;;;;;;;20.13;12.83;;;;;;;9.37;39.13;94833.25;5027572;28;20290;-64
2022/03/12 10:02:20;;;;;;;20.77;12.87;;;;;;;9.70;39.97;94831.53;5027294;28;20290;-63
2022/03/12 10:05:11;;;;;;;23.23;13.17;;;;;;;9.85;40.07;94820.00;5012461;28;20204;-63
2022/03/12 10:07:57;;;;;;;18.60;11.23;;;;;;;10.19;40.03;94825.94;5027677;28;20257;-63
2022/03/12 10:10:44;;;;;;;19.03;12.13;;;;;;;10.03;41.37;94822.75;5024139;28;20231;-64
2022/03/12 10:13:30;;;;;;;17.20;11.93;;;;;;;10.03;41.11;94815.31;5012737;28;20199;-63
2022/03/12 10:16:18;;;;;;;16.00;11.90;;;;;;;10.15;40.81;94819.09;5029179;28;20226;-63
2022/03/12 10:19:05;;;;;;;19.73;12.27;;;;;;;10.41;41.19;94814.84;5029211;28;20203;-64
2022/03/12 10:21:52;;;;;;;16.93;12.33;;;;;;;10.60;41.83;94808.13;5021849;28;20743;-64
2022/03/12 10:24:38;;;;;;;17.73;12.30;;;;;;;10.38;40.85;94813.03;5012052;28;20215;-64
2022/03/12 10:27:24;;;;;;;17.87;12.60;;;;;;;10.36;39.98;94804.53;5027166;28;20202;-64
2022/03/12 10:30:12;;;;;;;17.17;12.27;;;;;;;10.50;40.70;94807.38;5022038;28;20639;-64
2022/03/12 10:32:58;;;;;;;16.23;11.63;;;;;;;10.40;40.77;94808.63;5015695;28;20203;-64
2022/03/12 10:35:44;;;;;;;17.10;12.17;;;;;;;10.49;41.25;94797.69;5023639;28;20662;-63
2022/03/12 10:38:38;;;;;;;18.67;13.03;;;;;;;10.47;40.75;94797.38;5026619;28;20207;-65
2022/03/12 10:41:30;;;;;;;18.30;11.67;;;;;;;10.61;41.49;94793.25;5009085;28;20199;-64
2022/03/12 10:44:22;;;;;;;18.07;11.53;;;;;;;10.81;40.80;94788.78;5015240;28;20282;-64
2022/03/12 10:47:21;;;;;;;14.57;11.53;;;;;;;10.89;39.66;94797.41;5022969;28;20257;-64
2022/03/12 10:50:12;;;;;;;15.60;12.00;;;;;;;10.95;39.08;94798.28;5028314;28;20219;-64
2022/03/12 10:52:58;;;;;;;20.83;12.37;;;;;;;10.82;37.32;94793.03;5022757;28;20199;-64
2022/03/12 10:55:47;;;;;;;16.60;12.10;;;;;;;11.10;37.80;94790.19;5022758;28;20254;-64
2022/03/12 10:58:33;;;;;;;17.93;12.33;;;;;;;11.31;37.50;94797.38;5024011;28;20690;-64
2022/03/12 11:01:23;;;;;;;17.00;12.13;;;;;;;11.28;37.46;94801.78;5013447;28;20713;-64
2022/03/12 11:04:27;;;;;;;17.80;12.30;;;;;;;11.24;36.45;94792.22;5024170;28;20227;-64
2022/03/12 11:07:25;;;;;;;17.23;11.77;;;;;;;11.26;35.91;94795.25;5023833;28;20222;-64
2022/03/12 11:10:21;;;;;;;19.00;11.97;;;;;;;11.50;35.84;94793.31;5022914;28;20223;-64
2022/03/12 11:13:08;;;;;;;15.97;11.50;;;;;;;11.42;35.89;94794.88;5027995;28;20385;-64
2022/03/12 11:16:32;;;;;;;17.17;12.67;;;;;;;11.70;35.58;94783.31;5024342;28;20217;-64
2022/03/12 11:19:37;;;;;;;16.70;11.73;;;;;;;11.62;35.34;94776.63;5026759;28;20848;-64
2022/03/12 11:22:23;;;;;;;21.27;13.33;;;;;;;11.65;35.18;94775.00;5013099;28;20205;-64
2022/03/12 11:25:11;;;;;;;18.30;12.87;;;;;;;11.66;35.25;94768.28;5019270;28;20215;-64
2022/03/12 11:28:00;;;;;;;15.97;12.30;;;;;;;11.81;36.22;94772.59;5030240;28;20195;-65
2022/03/12 11:30:46;;;;;;;17.30;12.60;;;;;;;11.95;37.29;94760.94;5033572;28;20221;-65
2022/03/12 11:33:32;;;;;;;15.50;10.97;;;;;;;11.93;36.89;94757.91;5016581;28;20356;-66
2022/03/12 11:36:24;;;;;;;16.43;12.03;;;;;;;11.98;37.27;94759.97;5021626;28;20211;-65
2022/03/12 11:39:16;;;;;;;16.90;12.33;;;;;;;11.80;36.48;94738.25;5030812;28;20278;-65
2022/03/12 11:42:11;;;;;;;17.63;12.27;;;;;;;11.67;36.38;94739.72;5030007;28;20191;-64
2022/03/12 11:44:59;;;;;;;14.57;11.27;;;;;;;11.53;36.89;94743.13;5018320;28;20199;-65
2022/03/12 11:47:46;;;;;;;16.57;12.07;;;;;;;11.55;37.74;94736.00;5031173;28;20210;-64
2022/03/12 11:50:33;;;;;;;18.17;12.23;;;;;;;11.54;37.45;94731.00;5031431;28;20215;-64
2022/03/12 11:53:19;;;;;;;18.20;12.30;;;;;;;11.29;37.29;94737.69;5024592;28;20589;-63
2022/03/12 11:56:07;;;;;;;22.17;12.90;;;;;;;11.12;37.28;94735.81;5029368;28;20709;-63
2022/03/12 11:58:53;;;;;;;19.60;12.20;;;;;;;11.18;37.14;94736.69;5030208;28;20200;-64
2022/03/12 12:01:40;;;;;;;19.47;12.53;;;;;;;11.07;37.17;94731.75;5029459;28;20190;-64
2022/03/12 12:04:29;;;;;;;18.57;13.63;;;;;;;10.94;36.92;94718.28;5024722;28;20203;-63
2022/03/12 12:07:15;;;;;;;16.40;12.47;;;;;;;11.31;37.11;94724.31;5023467;28;20222;-64
2022/03/12 12:10:01;;;;;;;22.30;13.70;;;;;;;11.32;36.44;94725.81;5031055;28;20222;-64
2022/03/12 12:12:50;;;;;;;22.47;13.50;;;;;;;11.38;37.16;94715.75;5028200;28;20245;-64
2022/03/12 12:15:36;;;;;;;19.17;12.87;;;;;;;11.27;36.32;94715.50;5029078;28;20207;-64
2022/03/12 12:18:22;;;;;;;20.97;13.10;;;;;;;11.37;36.66;94708.75;5030199;28;20663;-64
2022/03/12 12:21:16;;;;;;;20.23;13.27;;;;;;;11.46;36.86;94714.16;5015351;28;20282;-64
2022/03/12 12:24:33;;;;;;;19.70;13.30;;;;;;;11.49;36.16;94705.03;5010116;28;20198;-65
2022/03/12 12:27:23;;;;;;;23.70;13.30;;;;;;;11.54;36.58;94717.31;5028314;28;20273;-65
2022/03/12 12:30:42;;;;;;;16.63;12.77;;;;;;;11.71;35.68;94712.94;5028928;28;20299;-64
2022/03/12 12:33:31;;;;;;;21.37;12.83;;;;;;;11.41;35.93;94711.31;5024500;28;20203;-64
2022/03/12 12:36:20;;;;;;;24.03;13.03;;;;;;;11.21;35.88;94711.91;5024328;28;20210;-65
2022/03/12 12:39:09;;;;;;;19.20;13.67;;;;;;;11.58;35.69;94709.66;5015155;28;20195;-64
2022/03/12 12:42:01;;;;;;;17.40;12.63;;;;;;;11.49;36.61;94718.69;5027314;28;20187;-65
2022/03/12 12:44:47;;;;;;;19.53;13.70;;;;;;;11.67;36.20;94710.41;5012692;28;20201;-65
2022/03/12 12:47:35;;;;;;;19.17;12.93;;;;;;;11.74;35.82;94704.53;5028577;28;20199;-64
2022/03/12 12:50:28;;;;;;;21.00;13.40;;;;;;;11.89;35.85;94697.13;5011093;28;20326;-64
2022/03/12 12:53:27;;;;;;;18.37;13.10;;;;;;;11.82;35.96;94694.00;5022276;28;20199;-63
2022/03/12 12:56:36;;;;;;;19.40;13.80;;;;;;;11.73;36.46;94683.88;5021837;28;20262;-65
2022/03/12 12:59:38;;;;;;;19.43;12.70;;;;;;;11.82;35.65;94677.56;5025720;28;20214;-65